sensor_id;sensor_type;location;lat;lon;timestamp;temperature;humidity
63976;DHT22;50167;47.958;21.780;2023-04-01T00:01:12;17.07;61.18
63976;DHT22;50167;47.958;21.780;2023-04-01T00:06:05;16.64;60.48
63976;DHT22;50167;47.958;21.780;2023-04-01T00:08:31;15.57;63.86
63976;DHT22;50167;47.958;21.780;2023-04-01T00:10:58;15.84;65.77
63976;DHT22;50167;47.958;21.780;2023-04-01T00:13:25;16.36;63.43
63976;DHT22;50167;47.958;21.780;2023-04-01T00:15:53;16.68;63.04
63976;DHT22;50167;47.958;21.780;2023-04-01T00:18:19;16.87;62.75
63976;DHT22;50167;47.958;21.780;2023-04-01T00:20:48;17.04;62.31
63976;DHT22;50167;47.958;21.780;2023-04-01T00:23:15;17.15;61.58
63976;DHT22;50167;47.958;21.780;2023-04-01T00:25:42;17.16;61.73
63976;DHT22;50167;47.958;21.780;2023-04-01T00:28:08;17.26;61.31
63976;DHT22;50167;47.958;21.780;2023-04-01T00:30:36;17.29;60.32
63976;DHT22;50167;47.958;21.780;2023-04-01T00:33:03;17.35;61.03
63976;DHT22;50167;47.958;21.780;2023-04-01T00:35:29;17.43;60.91
63976;DHT22;50167;47.958;21.780;2023-04-01T00:37:56;17.45;60.66
63976;DHT22;50167;47.958;21.780;2023-04-01T00:40:30;17.50;60.39
63976;DHT22;50167;47.958;21.780;2023-04-01T00:42:57;17.43;60.45
63976;DHT22;50167;47.958;21.780;2023-04-01T00:45:34;17.50;60.45
63976;DHT22;50167;47.958;21.780;2023-04-01T00:48:13;17.45;60.29
63976;DHT22;50167;47.958;21.780;2023-04-01T00:50:38;17.45;60.34
63976;DHT22;50167;47.958;21.780;2023-04-01T00:53:06;17.39;60.50
63976;DHT22;50167;47.958;21.780;2023-04-01T00:55:36;17.49;59.92
63976;DHT22;50167;47.958;21.780;2023-04-01T00:58:07;17.54;60.37
63976;DHT22;50167;47.958;21.780;2023-04-01T01:00:34;17.62;60.17
63976;DHT22;50167;47.958;21.780;2023-04-01T01:03:01;17.70;59.89
63976;DHT22;50167;47.958;21.780;2023-04-01T01:05:57;17.74;59.78
63976;DHT22;50167;47.958;21.780;2023-04-01T01:08:58;17.76;59.67
63976;DHT22;50167;47.958;21.780;2023-04-01T01:12:00;17.74;59.49
63976;DHT22;50167;47.958;21.780;2023-04-01T01:14:36;17.76;59.41
63976;DHT22;50167;47.958;21.780;2023-04-01T01:17:33;16.97;60.51
63976;DHT22;50167;47.958;21.780;2023-04-01T01:34:36;17.27;61.48
63976;DHT22;50167;47.958;21.780;2023-04-01T01:37:13;17.40;60.74
63976;DHT22;50167;47.958;21.780;2023-04-01T01:39:36;17.56;60.43
63976;DHT22;50167;47.958;21.780;2023-04-01T01:42:06;17.69;59.88
63976;DHT22;50167;47.958;21.780;2023-04-01T01:44:35;17.77;59.49
63976;DHT22;50167;47.958;21.780;2023-04-01T01:47:03;17.18;58.76
63976;DHT22;50167;47.958;21.780;2023-04-01T01:49:32;16.05;60.67
63976;DHT22;50167;47.958;21.780;2023-04-01T01:51:59;15.12;64.41
63976;DHT22;50167;47.958;21.780;2023-04-01T01:54:25;15.40;66.45
63976;DHT22;50167;47.958;21.780;2023-04-01T01:56:59;16.11;64.19
63976;DHT22;50167;47.958;21.780;2023-04-01T01:59:25;16.50;63.35
63976;DHT22;50167;47.958;21.780;2023-04-01T02:01:54;16.83;61.81
63976;DHT22;50167;47.958;21.780;2023-04-01T02:04:21;16.95;61.32
63976;DHT22;50167;47.958;21.780;2023-04-01T02:07:02;17.02;60.61
63976;DHT22;50167;47.958;21.780;2023-04-01T02:09:30;17.11;60.42
63976;DHT22;50167;47.958;21.780;2023-04-01T02:12:07;17.27;59.61
63976;DHT22;50167;47.958;21.780;2023-04-01T02:14:49;17.35;59.57
63976;DHT22;50167;47.958;21.780;2023-04-01T02:17:19;17.45;59.33
63976;DHT22;50167;47.958;21.780;2023-04-01T02:19:52;16.86;57.01
63976;DHT22;50167;47.958;21.780;2023-04-01T02:22:25;15.58;61.24
63976;DHT22;50167;47.958;21.780;2023-04-01T02:25:05;14.56;64.79
63976;DHT22;50167;47.958;21.780;2023-04-01T02:27:30;14.94;67.79
63976;DHT22;50167;47.958;21.780;2023-04-01T02:29:57;15.81;64.85
63976;DHT22;50167;47.958;21.780;2023-04-01T02:32:25;16.35;63.22
63976;DHT22;50167;47.958;21.780;2023-04-01T02:34:52;16.57;62.00
63976;DHT22;50167;47.958;21.780;2023-04-01T02:37:19;16.72;61.22
63976;DHT22;50167;47.958;21.780;2023-04-01T02:39:46;16.72;61.13
63976;DHT22;50167;47.958;21.780;2023-04-01T02:42:13;16.91;59.97
63976;DHT22;50167;47.958;21.780;2023-04-01T02:44:40;16.99;59.75
63976;DHT22;50167;47.958;21.780;2023-04-01T02:47:06;16.99;59.81
63976;DHT22;50167;47.958;21.780;2023-04-01T02:49:32;17.09;59.17
63976;DHT22;50167;47.958;21.780;2023-04-01T02:51:59;16.16;59.75
63976;DHT22;50167;47.958;21.780;2023-04-01T02:54:25;14.94;62.16
63976;DHT22;50167;47.958;21.780;2023-04-01T02:56:51;14.85;66.34
63976;DHT22;50167;47.958;21.780;2023-04-01T02:59:17;15.51;65.15
63976;DHT22;50167;47.958;21.780;2023-04-01T03:01:43;15.98;63.29
63976;DHT22;50167;47.958;21.780;2023-04-01T03:04:10;16.20;62.45
63976;DHT22;50167;47.958;21.780;2023-04-01T03:06:36;16.28;61.96
63976;DHT22;50167;47.958;21.780;2023-04-01T03:09:03;16.47;61.38
63976;DHT22;50167;47.958;21.780;2023-04-01T03:11:31;16.50;61.19
63976;DHT22;50167;47.958;21.780;2023-04-01T03:13:57;16.59;60.91
63976;DHT22;50167;47.958;21.780;2023-04-01T03:16:23;16.70;60.46
63976;DHT22;50167;47.958;21.780;2023-04-01T03:18:49;16.72;60.14
63976;DHT22;50167;47.958;21.780;2023-04-01T03:21:20;16.80;60.11
63976;DHT22;50167;47.958;21.780;2023-04-01T03:23:47;16.81;59.98
63976;DHT22;50167;47.958;21.780;2023-04-01T03:26:13;16.86;59.52
63976;DHT22;50167;47.958;21.780;2023-04-01T03:28:40;16.36;59.22
63976;DHT22;50167;47.958;21.780;2023-04-01T03:31:07;15.09;61.26
63976;DHT22;50167;47.958;21.780;2023-04-01T03:33:34;14.08;65.67
63976;DHT22;50167;47.958;21.780;2023-04-01T03:36:00;14.60;66.83
63976;DHT22;50167;47.958;21.780;2023-04-01T03:38:26;15.42;64.71
63976;DHT22;50167;47.958;21.780;2023-04-01T03:40:53;15.84;62.88
63976;DHT22;50167;47.958;21.780;2023-04-01T03:43:19;16.08;61.70
63976;DHT22;50167;47.958;21.780;2023-04-01T03:45:49;16.19;61.44
63976;DHT22;50167;47.958;21.780;2023-04-01T03:48:17;16.37;60.79
63976;DHT22;50167;47.958;21.780;2023-04-01T03:50:44;16.41;60.33
63976;DHT22;50167;47.958;21.780;2023-04-01T03:53:10;16.43;60.19
63976;DHT22;50167;47.958;21.780;2023-04-01T03:55:37;16.36;60.29
63976;DHT22;50167;47.958;21.780;2023-04-01T03:58:05;16.19;60.50
63976;DHT22;50167;47.958;21.780;2023-04-01T04:00:32;16.33;60.37
63976;DHT22;50167;47.958;21.780;2023-04-01T04:02:59;16.41;60.02
63976;DHT22;50167;47.958;21.780;2023-04-01T04:05:27;16.41;60.01
63976;DHT22;50167;47.958;21.780;2023-04-01T04:07:53;16.46;59.75
63976;DHT22;50167;47.958;21.780;2023-04-01T04:10:20;16.54;59.66
63976;DHT22;50167;47.958;21.780;2023-04-01T04:12:49;16.53;58.54
63976;DHT22;50167;47.958;21.780;2023-04-01T04:15:16;15.43;60.65
63976;DHT22;50167;47.958;21.780;2023-04-01T04:17:45;14.20;62.56
63976;DHT22;50167;47.958;21.780;2023-04-01T04:20:11;14.20;66.66
63976;DHT22;50167;47.958;21.780;2023-04-01T04:22:38;14.89;64.91
63976;DHT22;50167;47.958;21.780;2023-04-01T04:25:05;15.30;63.30
63976;DHT22;50167;47.958;21.780;2023-04-01T04:27:31;15.56;61.97
63976;DHT22;50167;47.958;21.780;2023-04-01T04:29:58;15.60;61.64
63976;DHT22;50167;47.958;21.780;2023-04-01T04:32:25;15.58;61.61
63976;DHT22;50167;47.958;21.780;2023-04-01T04:34:51;15.63;61.26
63976;DHT22;50167;47.958;21.780;2023-04-01T04:37:17;15.65;61.13
63976;DHT22;50167;47.958;21.780;2023-04-01T04:39:44;15.58;61.32
63976;DHT22;50167;47.958;21.780;2023-04-01T04:42:10;15.64;61.17
63976;DHT22;50167;47.958;21.780;2023-04-01T04:44:36;15.78;60.75
63976;DHT22;50167;47.958;21.780;2023-04-01T04:47:02;15.82;60.52
63976;DHT22;50167;47.958;21.780;2023-04-01T04:49:29;15.91;60.46
63976;DHT22;50167;47.958;21.780;2023-04-01T04:51:55;15.92;59.99
63976;DHT22;50167;47.958;21.780;2023-04-01T04:54:21;15.99;59.80
63976;DHT22;50167;47.958;21.780;2023-04-01T04:56:48;16.01;59.68
63976;DHT22;50167;47.958;21.780;2023-04-01T04:59:14;16.02;59.62
63976;DHT22;50167;47.958;21.780;2023-04-01T05:01:40;15.88;59.22
63976;DHT22;50167;47.958;21.780;2023-04-01T05:04:06;14.85;60.57
63976;DHT22;50167;47.958;21.780;2023-04-01T05:06:32;13.74;63.74
63976;DHT22;50167;47.958;21.780;2023-04-01T05:09:00;13.89;67.07
63976;DHT22;50167;47.958;21.780;2023-04-01T05:11:26;14.82;64.75
63976;DHT22;50167;47.958;21.780;2023-04-01T05:13:53;15.43;62.68
63976;DHT22;50167;47.958;21.780;2023-04-01T05:16:20;15.64;61.73
63976;DHT22;50167;47.958;21.780;2023-04-01T05:18:47;15.85;61.10
63976;DHT22;50167;47.958;21.780;2023-04-01T05:21:14;16.09;60.26
63976;DHT22;50167;47.958;21.780;2023-04-01T05:23:42;16.15;60.18
63976;DHT22;50167;47.958;21.780;2023-04-01T05:26:12;16.20;60.20
63976;DHT22;50167;47.958;21.780;2023-04-01T05:28:40;16.37;59.56
63976;DHT22;50167;47.958;21.780;2023-04-01T05:31:07;16.36;58.91
63976;DHT22;50167;47.958;21.780;2023-04-01T05:33:34;15.30;61.01
63976;DHT22;50167;47.958;21.780;2023-04-01T05:36:11;14.34;65.07
63976;DHT22;50167;47.958;21.780;2023-04-01T05:38:38;14.85;65.11
63976;DHT22;50167;47.958;21.780;2023-04-01T05:41:05;15.25;63.87
63976;DHT22;50167;47.958;21.780;2023-04-01T05:43:31;15.44;62.78
63976;DHT22;50167;47.958;21.780;2023-04-01T05:45:57;15.51;62.58
63976;DHT22;50167;47.958;21.780;2023-04-01T05:48:24;15.75;61.79
63976;DHT22;50167;47.958;21.780;2023-04-01T05:50:50;15.82;61.44
63976;DHT22;50167;47.958;21.780;2023-04-01T05:53:16;15.88;61.22
63976;DHT22;50167;47.958;21.780;2023-04-01T05:55:42;16.04;60.83
63976;DHT22;50167;47.958;21.780;2023-04-01T05:58:09;16.08;60.89
63976;DHT22;50167;47.958;21.780;2023-04-01T06:00:35;16.15;60.97
63976;DHT22;50167;47.958;21.780;2023-04-01T06:03:02;16.20;60.28
63976;DHT22;50167;47.958;21.780;2023-04-01T06:05:37;15.86;59.91
63976;DHT22;50167;47.958;21.780;2023-04-01T06:08:10;14.77;64.46
63976;DHT22;50167;47.958;21.780;2023-04-01T06:19:47;16.51;59.83
63976;DHT22;50167;47.958;21.780;2023-04-01T06:46:47;14.99;64.71
63976;DHT22;50167;47.958;21.780;2023-04-01T06:54:52;16.57;59.76
63976;DHT22;50167;47.958;21.780;2023-04-01T06:57:41;16.61;58.62
63976;DHT22;50167;47.958;21.780;2023-04-01T07:05:39;15.37;63.83
63976;DHT22;50167;47.958;21.780;2023-04-01T07:08:13;16.25;61.11
63976;DHT22;50167;47.958;21.780;2023-04-01T07:11:01;16.61;60.58
63976;DHT22;50167;47.958;21.780;2023-04-01T07:16:25;16.91;56.69
63976;DHT22;50167;47.958;21.780;2023-04-01T07:19:06;15.88;60.46
63976;DHT22;50167;47.958;21.780;2023-04-01T07:21:47;15.51;62.23
63976;DHT22;50167;47.958;21.780;2023-04-01T07:24:26;16.67;59.69
63976;DHT22;50167;47.958;21.780;2023-04-01T07:26:56;16.97;57.82
63976;DHT22;50167;47.958;21.780;2023-04-01T07:29:23;16.32;58.95
63976;DHT22;50167;47.958;21.780;2023-04-01T07:35:39;15.27;60.75
63976;DHT22;50167;47.958;21.780;2023-04-01T07:44:20;17.66;58.72
63976;DHT22;50167;47.958;21.780;2023-04-01T07:47:16;17.77;54.93
63976;DHT22;50167;47.958;21.780;2023-04-01T07:49:50;16.92;59.03
63976;DHT22;50167;47.958;21.780;2023-04-01T07:58:35;15.86;60.88
63976;DHT22;50167;47.958;21.780;2023-04-01T08:04:39;16.04;63.57
63976;DHT22;50167;47.958;21.780;2023-04-01T08:10:22;17.69;55.66
63976;DHT22;50167;47.958;21.780;2023-04-01T08:24:43;16.09;59.43
63976;DHT22;50167;47.958;21.780;2023-04-01T08:27:37;15.93;58.57
63976;DHT22;50167;47.958;21.780;2023-04-01T08:30:38;15.81;61.30
63976;DHT22;50167;47.958;21.780;2023-04-01T08:33:21;15.78;59.60
63976;DHT22;50167;47.958;21.780;2023-04-01T08:36:05;15.75;61.69
63976;DHT22;50167;47.958;21.780;2023-04-01T08:38:37;15.78;61.35
63976;DHT22;50167;47.958;21.780;2023-04-01T08:52:36;17.35;57.52
63976;DHT22;50167;47.958;21.780;2023-04-01T09:13:37;17.08;56.82
63976;DHT22;50167;47.958;21.780;2023-04-01T09:21:45;16.60;57.30
63976;DHT22;50167;47.958;21.780;2023-04-01T09:35:49;15.92;58.83
63976;DHT22;50167;47.958;21.780;2023-04-01T09:38:54;15.89;58.35
63976;DHT22;50167;47.958;21.780;2023-04-01T09:41:32;15.93;58.82
63976;DHT22;50167;47.958;21.780;2023-04-01T09:44:06;16.15;59.74
63976;DHT22;50167;47.958;21.780;2023-04-01T09:47:08;16.39;57.55
63976;DHT22;50167;47.958;21.780;2023-04-01T09:55:17;17.14;56.38
63976;DHT22;50167;47.958;21.780;2023-04-01T10:12:25;17.72;52.93
63976;DHT22;50167;47.958;21.780;2023-04-01T10:56:29;16.46;57.18
63976;DHT22;50167;47.958;21.780;2023-04-01T11:02:56;16.28;57.90
63976;DHT22;50167;47.958;21.780;2023-04-01T11:23:32;17.22;56.87
63976;DHT22;50167;47.958;21.780;2023-04-01T11:35:19;18.52;51.70
63976;DHT22;50167;47.958;21.780;2023-04-01T11:41:13;18.88;51.11
63976;DHT22;50167;47.958;21.780;2023-04-01T11:55:46;18.45;50.98
63976;DHT22;50167;47.958;21.780;2023-04-01T12:01:36;18.16;51.54
63976;DHT22;50167;47.958;21.780;2023-04-01T12:10:19;17.83;53.15
63976;DHT22;50167;47.958;21.780;2023-04-01T12:16:24;17.56;53.86
63976;DHT22;50167;47.958;21.780;2023-04-01T12:19:24;17.40;53.76
63976;DHT22;50167;47.958;21.780;2023-04-01T12:21:53;17.32;54.65
63976;DHT22;50167;47.958;21.780;2023-04-01T12:24:52;17.25;53.81
63976;DHT22;50167;47.958;21.780;2023-04-01T12:30:46;17.25;53.42
63976;DHT22;50167;47.958;21.780;2023-04-01T12:45:23;19.70;48.51
63976;DHT22;50167;47.958;21.780;2023-04-01T13:08:58;21.15;45.05
63976;DHT22;50167;47.958;21.780;2023-04-01T13:26:14;21.30;44.68
63976;DHT22;50167;47.958;21.780;2023-04-01T13:29:09;21.42;43.35
63976;DHT22;50167;47.958;21.780;2023-04-01T13:31:47;21.55;43.71
63976;DHT22;50167;47.958;21.780;2023-04-01T13:43:42;21.61;43.94
63976;DHT22;50167;47.958;21.780;2023-04-01T13:51:59;20.42;44.84
63976;DHT22;50167;47.958;21.780;2023-04-01T14:06:05;18.74;48.10
63976;DHT22;50167;47.958;21.780;2023-04-01T14:14:29;17.93;50.16
63976;DHT22;50167;47.958;21.780;2023-04-01T14:23:48;17.58;50.92
63976;DHT22;50167;47.958;21.780;2023-04-01T14:32:03;17.36;51.97
63976;DHT22;50167;47.958;21.780;2023-04-01T14:34:58;17.27;52.61
63976;DHT22;50167;47.958;21.780;2023-04-01T14:37:54;17.19;53.24
63976;DHT22;50167;47.958;21.780;2023-04-01T14:43:44;17.11;52.87
63976;DHT22;50167;47.958;21.780;2023-04-01T14:46:32;17.16;52.89
63976;DHT22;50167;47.958;21.780;2023-04-01T14:52:27;17.35;53.88
63976;DHT22;50167;47.958;21.780;2023-04-01T14:54:53;17.40;54.13
63976;DHT22;50167;47.958;21.780;2023-04-01T14:57:31;17.42;53.82
63976;DHT22;50167;47.958;21.780;2023-04-01T15:00:17;17.45;53.91
63976;DHT22;50167;47.958;21.780;2023-04-01T15:03:08;17.52;54.09
63976;DHT22;50167;47.958;21.780;2023-04-01T15:11:47;18.02;52.69
63976;DHT22;50167;47.958;21.780;2023-04-01T15:14:35;18.01;51.81
63976;DHT22;50167;47.958;21.780;2023-04-01T15:17:25;17.98;51.79
63976;DHT22;50167;47.958;21.780;2023-04-01T15:20:10;18.02;51.86
63976;DHT22;50167;47.958;21.780;2023-04-01T15:36:43;18.09;52.47
63976;DHT22;50167;47.958;21.780;2023-04-01T15:45:17;17.84;52.76
63976;DHT22;50167;47.958;21.780;2023-04-01T15:47:59;17.70;53.05
63976;DHT22;50167;47.958;21.780;2023-04-01T16:02:18;16.94;54.60
63976;DHT22;50167;47.958;21.780;2023-04-01T16:24:46;16.01;58.26
63976;DHT22;50167;47.958;21.780;2023-04-01T16:27:42;15.88;58.03
63976;DHT22;50167;47.958;21.780;2023-04-01T16:33:12;15.67;60.06
63976;DHT22;50167;47.958;21.780;2023-04-01T16:42:08;15.25;61.14
63976;DHT22;50167;47.958;21.780;2023-04-01T16:44:27;15.07;61.45
63976;DHT22;50167;47.958;21.780;2023-04-01T16:46:59;14.96;61.64
63976;DHT22;50167;47.958;21.780;2023-04-01T16:49:40;14.82;62.60
63976;DHT22;50167;47.958;21.780;2023-04-01T16:52:15;15.67;64.99
63976;DHT22;50167;47.958;21.780;2023-04-01T16:55:12;16.94;62.69
63976;DHT22;50167;47.958;21.780;2023-04-01T16:57:52;17.94;59.39
63976;DHT22;50167;47.958;21.780;2023-04-01T17:00:36;17.76;55.34
63976;DHT22;50167;47.958;21.780;2023-04-01T17:03:32;16.94;56.30
63976;DHT22;50167;47.958;21.780;2023-04-01T17:06:11;16.25;57.73
63976;DHT22;50167;47.958;21.780;2023-04-01T17:11:26;15.40;59.63
63976;DHT22;50167;47.958;21.780;2023-04-01T17:19:34;14.57;61.65
63976;DHT22;50167;47.958;21.780;2023-04-01T17:22:49;14.33;63.45
63976;DHT22;50167;47.958;21.780;2023-04-01T17:31:05;17.23;61.16
63976;DHT22;50167;47.958;21.780;2023-04-01T17:42:55;15.56;60.50
63976;DHT22;50167;47.958;21.780;2023-04-01T17:45:52;15.13;62.13
63976;DHT22;50167;47.958;21.780;2023-04-01T17:48:56;15.91;65.98
63976;DHT22;50167;47.958;21.780;2023-04-01T17:51:35;17.04;62.30
63976;DHT22;50167;47.958;21.780;2023-04-01T18:10:33;15.82;60.17
63976;DHT22;50167;47.958;21.780;2023-04-01T18:13:19;15.36;61.81
63976;DHT22;50167;47.958;21.780;2023-04-01T18:16:00;14.99;62.79
63976;DHT22;50167;47.958;21.780;2023-04-01T18:21:45;16.88;64.10
63976;DHT22;50167;47.958;21.780;2023-04-01T18:24:45;17.36;60.68
63976;DHT22;50167;47.958;21.780;2023-04-01T18:27:22;17.58;59.34
63976;DHT22;50167;47.958;21.780;2023-04-01T18:38:52;15.09;61.78
63976;DHT22;50167;47.958;21.780;2023-04-01T18:41:30;14.72;63.12
63976;DHT22;50167;47.958;21.780;2023-04-01T18:52:38;17.97;58.99
63976;DHT22;50167;47.958;21.780;2023-04-01T19:00:41;15.86;59.93
63976;DHT22;50167;47.958;21.780;2023-04-01T19:06:12;14.84;62.68
63976;DHT22;50167;47.958;21.780;2023-04-01T19:08:35;15.27;65.81
63976;DHT22;50167;47.958;21.780;2023-04-01T19:17:07;17.77;59.37
63976;DHT22;50167;47.958;21.780;2023-04-01T19:19:56;17.12;57.88
63976;DHT22;50167;47.958;21.780;2023-04-01T19:28:22;14.68;62.80
63976;DHT22;50167;47.958;21.780;2023-04-01T19:36:33;16.30;61.60
63976;DHT22;50167;47.958;21.780;2023-04-01T20:00:24;14.96;66.55
63976;DHT22;50167;47.958;21.780;2023-04-01T20:03:04;16.04;63.74
63976;DHT22;50167;47.958;21.780;2023-04-01T20:05:51;16.41;63.47
63976;DHT22;50167;47.958;21.780;2023-04-01T20:08:29;16.49;60.95
63976;DHT22;50167;47.958;21.780;2023-04-01T20:14:01;16.78;59.86
63976;DHT22;50167;47.958;21.780;2023-04-01T20:16:56;16.88;59.32
63976;DHT22;50167;47.958;21.780;2023-04-01T20:22:10;15.33;59.63
63976;DHT22;50167;47.958;21.780;2023-04-01T20:24:41;14.63;61.51
63976;DHT22;50167;47.958;21.780;2023-04-01T20:27:22;14.02;63.03
63976;DHT22;50167;47.958;21.780;2023-04-01T20:50:01;16.32;56.86
63976;DHT22;50167;47.958;21.780;2023-04-01T20:52:41;15.16;59.00
63976;DHT22;50167;47.958;21.780;2023-04-01T20:55:20;14.27;60.99
63976;DHT22;50167;47.958;21.780;2023-04-01T20:57:55;13.60;62.95
63976;DHT22;50167;47.958;21.780;2023-04-01T21:01:23;14.15;67.16
63976;DHT22;50167;47.958;21.780;2023-04-01T21:09:23;16.29;60.41
63976;DHT22;50167;47.958;21.780;2023-04-01T21:17:18;14.60;59.77
63976;DHT22;50167;47.958;21.780;2023-04-01T21:20:11;13.70;62.29
63976;DHT22;50167;47.958;21.780;2023-04-01T21:22:49;14.08;66.25
63976;DHT22;50167;47.958;21.780;2023-04-01T21:28:27;15.61;61.91
63976;DHT22;50167;47.958;21.780;2023-04-01T21:49:34;15.10;63.14
63976;DHT22;50167;47.958;21.780;2023-04-01T21:58:10;15.05;58.37
63976;DHT22;50167;47.958;21.780;2023-04-01T22:06:40;13.54;66.02
63976;DHT22;50167;47.958;21.780;2023-04-01T22:17:28;14.98;62.36
63976;DHT22;50167;47.958;21.780;2023-04-01T22:28:41;15.15;57.23
63976;DHT22;50167;47.958;21.780;2023-04-01T22:31:07;13.82;59.33
63976;DHT22;50167;47.958;21.780;2023-04-01T22:34:02;12.83;61.10
63976;DHT22;50167;47.958;21.780;2023-04-01T22:55:59;13.61;59.15
63976;DHT22;50167;47.958;21.780;2023-04-01T22:58:32;12.75;60.58
63976;DHT22;50167;47.958;21.780;2023-04-01T23:01:06;11.99;62.72
63976;DHT22;50167;47.958;21.780;2023-04-01T23:03:37;12.38;66.58
63976;DHT22;50167;47.958;21.780;2023-04-01T23:10:12;14.50;64.10
63976;DHT22;50167;47.958;21.780;2023-04-01T23:12:36;14.95;61.16
63976;DHT22;50167;47.958;21.780;2023-04-01T23:15:03;15.22;60.26
63976;DHT22;50167;47.958;21.780;2023-04-01T23:17:45;15.51;59.23
63976;DHT22;50167;47.958;21.780;2023-04-01T23:28:54;12.10;63.46
63976;DHT22;50167;47.958;21.780;2023-04-01T23:31:37;12.69;67.79
63976;DHT22;50167;47.958;21.780;2023-04-01T23:36:46;14.41;63.53
63976;DHT22;50167;47.958;21.780;2023-04-01T23:42:24;15.02;61.06
63976;DHT22;50167;47.958;21.780;2023-04-01T23:44:36;15.23;60.02
63976;DHT22;50167;47.958;21.780;2023-04-01T23:47:04;15.36;59.94
63976;DHT22;50167;47.958;21.780;2023-04-01T23:49:45;15.60;59.46
63976;DHT22;50167;47.958;21.780;2023-04-01T23:54:58;13.98;59.07
63976;DHT22;50167;47.958;21.780;2023-04-01T23:57:33;13.10;60.93
